Malad City, ID

08:17 PM MST am 22. November 2014 (GMT -0700)
Middle of city block | Change Station
CLOSE
Current Station
Persönliche Wetterstationen
Location: Malad City, ID
Höhe: 4662 ft
Wetterstationen in der Umgebung

Höhe 4662 ft 42.20 °N, 112.26 °W | Updated 13 seconds ago

Wolkig
Wolkig
35.4 °F
gefühlte 28 °F
N
9.0
Wind Wechselnd Wind aus Süd-Südost
Gusts 9.0 mph

Heute
Max. -- | schwach -- °F
--% Regenrisiko
Gestern
Max. -- | schwach -- °F
Precip. -- inch
7:28 AM 5:02 PM
Neumond, 0% visible
Druck 29.85 inch
Sichtweite 10.0 Meilen
Wolken Teils Wolkig 5500 ft
Windchill 28 °F
Taupunkt 31 °F
Feuchtigkeit 86%
Regen 0.56 inch
Schneehöhe Nicht verfügbar..
UV 0 von 12
Pollen .10 von 12
Luftqualität Nicht verfügbar..
Flu Activity Nicht verfügbar..
METAR KLGU 230251Z AUTO 10005KT 10SM SCT055 02/00 A2984 RMK AO2 SLP106 T00220000 53018

More Conditions Fewer Conditions

Druck 29.85 inch
Sichtweite 10.0 Meilen
Wolken Teils Wolkig 5500 ft
Windchill 28 °F
Taupunkt 31 °F
Feuchtigkeit 86%
Regen 0.56 inch
Schneehöhe Nicht verfügbar..
UV 0 von 12
Pollen .10 von 12
Luftqualität Nicht verfügbar..
Flu Activity Nicht verfügbar..
METAR KLGU 230251Z AUTO 10005KT 10SM SCT055 02/00 A2984 RMK AO2 SLP106 T00220000 53018

More Conditions Fewer Conditions

10-Day Weather Forecast

Almanac

Astronomie

Nov. 22, 2014 Aufgang Untergang
Genaue Zeit
Bürgerliche Dämmerung
Nautische Dämmerung
Astronomische Dämmerung
Mond
Länge des sichtbaren Lichts
Tageslänge
Tomorrow will be .
, % of the Moon is Illuminated

Heutige Rekorde

State Highs State Lows

Community

WunderPhotos

Upload Photos

1,772,989 Fotos hochgeladen!

WunderBlogs® & News

Nearby

Luftqualität

  Luftqualität LQ Index Schadstoff
Not available.

Schneehöhe

Station Depth Höhe

Erdbebenaktivität

Stadt Distance Mag. Time & Date
Minimum magnitude displayed is 2.5.

küstennahe Wassertemperaturen

Ort Temperatur

Wetterstationen in der Umgebung